sensor_id;sensor_type;location;lat;lon;timestamp;P1;durP1;ratioP1;P2;durP2;ratioP2
31584;SDS011;18191;51.288;12.390;2023-09-19T00:03:45;4.22;;;1.00;;
31584;SDS011;18191;51.288;12.390;2023-09-19T00:08:35;3.38;;;1.20;;
31584;SDS011;18191;51.288;12.390;2023-09-19T00:13:25;3.70;;;1.17;;
31584;SDS011;18191;51.288;12.390;2023-09-19T00:18:15;3.38;;;1.05;;
31584;SDS011;18191;51.288;12.390;2023-09-19T00:23:07;2.47;;;1.10;;
31584;SDS011;18191;51.288;12.390;2023-09-19T00:27:58;6.38;;;1.48;;
31584;SDS011;18191;51.288;12.390;2023-09-19T00:32:49;2.88;;;1.20;;
31584;SDS011;18191;51.288;12.390;2023-09-19T00:37:42;7.68;;;1.95;;
31584;SDS011;18191;51.288;12.390;2023-09-19T00:42:33;3.20;;;1.27;;
31584;SDS011;18191;51.288;12.390;2023-09-19T00:47:23;2.90;;;1.20;;
31584;SDS011;18191;51.288;12.390;2023-09-19T00:52:15;4.50;;;1.65;;
31584;SDS011;18191;51.288;12.390;2023-09-19T00:57:06;3.17;;;0.90;;
31584;SDS011;18191;51.288;12.390;2023-09-19T01:01:57;2.60;;;1.00;;
31584;SDS011;18191;51.288;12.390;2023-09-19T01:06:50;5.57;;;1.33;;
31584;SDS011;18191;51.288;12.390;2023-09-19T01:11:43;7.93;;;1.20;;
31584;SDS011;18191;51.288;12.390;2023-09-19T01:16:36;4.47;;;1.17;;
31584;SDS011;18191;51.288;12.390;2023-09-19T01:26:33;9.63;;;2.15;;
31584;SDS011;18191;51.288;12.390;2023-09-19T01:31:31;4.90;;;1.70;;
31584;SDS011;18191;51.288;12.390;2023-09-19T01:36:26;3.70;;;1.88;;
31584;SDS011;18191;51.288;12.390;2023-09-19T01:41:17;3.08;;;1.25;;
31584;SDS011;18191;51.288;12.390;2023-09-19T01:46:24;3.25;;;1.50;;
31584;SDS011;18191;51.288;12.390;2023-09-19T01:51:18;7.10;;;2.15;;
31584;SDS011;18191;51.288;12.390;2023-09-19T01:56:12;3.03;;;1.50;;
31584;SDS011;18191;51.288;12.390;2023-09-19T02:01:06;7.10;;;2.00;;
31584;SDS011;18191;51.288;12.390;2023-09-19T02:05:58;7.00;;;1.50;;
31584;SDS011;18191;51.288;12.390;2023-09-19T02:10:48;4.27;;;1.60;;
31584;SDS011;18191;51.288;12.390;2023-09-19T02:15:38;2.88;;;1.40;;
31584;SDS011;18191;51.288;12.390;2023-09-19T02:20:28;2.03;;;1.20;;
31584;SDS011;18191;51.288;12.390;2023-09-19T02:25:19;2.77;;;1.33;;
31584;SDS011;18191;51.288;12.390;2023-09-19T02:34:59;2.63;;;1.20;;
31584;SDS011;18191;51.288;12.390;2023-09-19T02:44:40;2.45;;;1.35;;
31584;SDS011;18191;51.288;12.390;2023-09-19T02:49:30;7.47;;;1.23;;
31584;SDS011;18191;51.288;12.390;2023-09-19T02:54:20;5.37;;;0.90;;
31584;SDS011;18191;51.288;12.390;2023-09-19T03:04:01;3.03;;;1.10;;
31584;SDS011;18191;51.288;12.390;2023-09-19T03:13:42;1.48;;;0.93;;
31584;SDS011;18191;51.288;12.390;2023-09-19T03:18:34;4.30;;;1.35;;
31584;SDS011;18191;51.288;12.390;2023-09-19T03:23:25;7.27;;;1.20;;
31584;SDS011;18191;51.288;12.390;2023-09-19T03:28:16;5.68;;;1.40;;
31584;SDS011;18191;51.288;12.390;2023-09-19T03:33:06;6.90;;;1.10;;
31584;SDS011;18191;51.288;12.390;2023-09-19T03:37:56;3.25;;;1.10;;
31584;SDS011;18191;51.288;12.390;2023-09-19T03:42:46;3.08;;;1.30;;
31584;SDS011;18191;51.288;12.390;2023-09-19T03:47:38;2.05;;;0.77;;
31584;SDS011;18191;51.288;12.390;2023-09-19T03:57:18;1.38;;;0.70;;
31584;SDS011;18191;51.288;12.390;2023-09-19T04:02:10;5.47;;;1.30;;
31584;SDS011;18191;51.288;12.390;2023-09-19T04:07:11;3.58;;;1.00;;
31584;SDS011;18191;51.288;12.390;2023-09-19T04:16:53;3.13;;;1.25;;
31584;SDS011;18191;51.288;12.390;2023-09-19T04:21:43;1.10;;;0.77;;
31584;SDS011;18191;51.288;12.390;2023-09-19T04:26:34;2.60;;;1.10;;
31584;SDS011;18191;51.288;12.390;2023-09-19T04:31:25;1.77;;;0.83;;
31584;SDS011;18191;51.288;12.390;2023-09-19T04:41:06;1.83;;;1.13;;
31584;SDS011;18191;51.288;12.390;2023-09-19T04:50:48;4.18;;;1.10;;
31584;SDS011;18191;51.288;12.390;2023-09-19T04:55:38;6.40;;;1.27;;
31584;SDS011;18191;51.288;12.390;2023-09-19T05:10:12;6.45;;;1.45;;
31584;SDS011;18191;51.288;12.390;2023-09-19T05:19:53;5.82;;;1.45;;
31584;SDS011;18191;51.288;12.390;2023-09-19T05:24:43;2.53;;;1.17;;
31584;SDS011;18191;51.288;12.390;2023-09-19T05:29:33;2.40;;;0.97;;
31584;SDS011;18191;51.288;12.390;2023-09-19T05:34:24;3.95;;;0.95;;
31584;SDS011;18191;51.288;12.390;2023-09-19T05:39:15;7.97;;;1.23;;
31584;SDS011;18191;51.288;12.390;2023-09-19T05:44:06;4.65;;;1.27;;
31584;SDS011;18191;51.288;12.390;2023-09-19T05:53:47;2.28;;;1.17;;
31584;SDS011;18191;51.288;12.390;2023-09-19T05:58:38;5.25;;;1.35;;
31584;SDS011;18191;51.288;12.390;2023-09-19T06:08:19;1.43;;;0.80;;
31584;SDS011;18191;51.288;12.390;2023-09-19T06:13:09;6.80;;;1.45;;
31584;SDS011;18191;51.288;12.390;2023-09-19T06:18:00;1.83;;;0.93;;
31584;SDS011;18191;51.288;12.390;2023-09-19T06:22:52;4.15;;;1.35;;
31584;SDS011;18191;51.288;12.390;2023-09-19T06:32:34;6.50;;;1.70;;
31584;SDS011;18191;51.288;12.390;2023-09-19T06:37:26;3.53;;;0.83;;
31584;SDS011;18191;51.288;12.390;2023-09-19T06:42:17;8.10;;;1.08;;
31584;SDS011;18191;51.288;12.390;2023-09-19T06:47:08;3.53;;;1.00;;
31584;SDS011;18191;51.288;12.390;2023-09-19T06:51:58;1.38;;;0.82;;
31584;SDS011;18191;51.288;12.390;2023-09-19T06:56:49;1.38;;;0.95;;
31584;SDS011;18191;51.288;12.390;2023-09-19T07:01:39;3.95;;;1.00;;
31584;SDS011;18191;51.288;12.390;2023-09-19T07:06:29;2.65;;;0.93;;
31584;SDS011;18191;51.288;12.390;2023-09-19T07:11:20;2.10;;;0.90;;
31584;SDS011;18191;51.288;12.390;2023-09-19T07:16:11;5.72;;;1.38;;
31584;SDS011;18191;51.288;12.390;2023-09-19T07:21:03;6.70;;;0.70;;
31584;SDS011;18191;51.288;12.390;2023-09-19T07:25:59;5.43;;;1.00;;
31584;SDS011;18191;51.288;12.390;2023-09-19T07:30:50;7.43;;;0.95;;
31584;SDS011;18191;51.288;12.390;2023-09-19T07:35:40;9.32;;;0.85;;
31584;SDS011;18191;51.288;12.390;2023-09-19T07:40:30;2.67;;;1.05;;
31584;SDS011;18191;51.288;12.390;2023-09-19T07:45:20;4.20;;;0.90;;
31584;SDS011;18191;51.288;12.390;2023-09-19T07:50:10;4.78;;;1.00;;
31584;SDS011;18191;51.288;12.390;2023-09-19T07:55:01;6.43;;;1.13;;
31584;SDS011;18191;51.288;12.390;2023-09-19T07:59:56;7.97;;;0.80;;
31584;SDS011;18191;51.288;12.390;2023-09-19T08:04:47;2.85;;;0.85;;
31584;SDS011;18191;51.288;12.390;2023-09-19T08:09:37;2.05;;;1.17;;
31584;SDS011;18191;51.288;12.390;2023-09-19T08:14:28;3.22;;;0.80;;
31584;SDS011;18191;51.288;12.390;2023-09-19T08:19:19;4.90;;;0.85;;
31584;SDS011;18191;51.288;12.390;2023-09-19T08:24:13;6.93;;;0.90;;
31584;SDS011;18191;51.288;12.390;2023-09-19T08:29:04;4.93;;;0.65;;
31584;SDS011;18191;51.288;12.390;2023-09-19T08:33:57;5.85;;;1.15;;
31584;SDS011;18191;51.288;12.390;2023-09-19T08:38:47;2.67;;;1.27;;
31584;SDS011;18191;51.288;12.390;2023-09-19T08:43:39;1.73;;;0.75;;
31584;SDS011;18191;51.288;12.390;2023-09-19T08:48:30;3.58;;;1.05;;
31584;SDS011;18191;51.288;12.390;2023-09-19T08:53:26;5.47;;;0.90;;
31584;SDS011;18191;51.288;12.390;2023-09-19T08:58:17;2.95;;;1.00;;
31584;SDS011;18191;51.288;12.390;2023-09-19T09:03:09;1.90;;;0.85;;
31584;SDS011;18191;51.288;12.390;2023-09-19T09:08:00;3.53;;;1.20;;
31584;SDS011;18191;51.288;12.390;2023-09-19T09:12:52;5.28;;;1.02;;
31584;SDS011;18191;51.288;12.390;2023-09-19T09:17:46;7.72;;;1.40;;
31584;SDS011;18191;51.288;12.390;2023-09-19T09:22:37;3.58;;;1.20;;
31584;SDS011;18191;51.288;12.390;2023-09-19T09:27:30;12.30;;;1.20;;
31584;SDS011;18191;51.288;12.390;2023-09-19T09:32:28;3.42;;;0.80;;
31584;SDS011;18191;51.288;12.390;2023-09-19T09:37:27;5.18;;;0.90;;
31584;SDS011;18191;51.288;12.390;2023-09-19T09:42:35;2.80;;;1.35;;
31584;SDS011;18191;51.288;12.390;2023-09-19T09:47:41;0.80;;;0.63;;
31584;SDS011;18191;51.288;12.390;2023-09-19T09:52:43;5.78;;;1.35;;
31584;SDS011;18191;51.288;12.390;2023-09-19T09:57:34;4.93;;;1.10;;
31584;SDS011;18191;51.288;12.390;2023-09-19T10:02:25;2.28;;;0.80;;
31584;SDS011;18191;51.288;12.390;2023-09-19T10:07:25;2.90;;;1.20;;
31584;SDS011;18191;51.288;12.390;2023-09-19T10:12:17;3.70;;;0.65;;
31584;SDS011;18191;51.288;12.390;2023-09-19T10:17:09;6.13;;;1.33;;
31584;SDS011;18191;51.288;12.390;2023-09-19T10:22:01;6.15;;;1.50;;
31584;SDS011;18191;51.288;12.390;2023-09-19T10:26:52;4.15;;;1.00;;
31584;SDS011;18191;51.288;12.390;2023-09-19T10:31:43;4.95;;;1.25;;
31584;SDS011;18191;51.288;12.390;2023-09-19T10:36:37;1.83;;;0.88;;
31584;SDS011;18191;51.288;12.390;2023-09-19T10:41:28;3.08;;;0.73;;
31584;SDS011;18191;51.288;12.390;2023-09-19T10:46:19;3.55;;;0.90;;
31584;SDS011;18191;51.288;12.390;2023-09-19T10:55:59;5.07;;;0.93;;
31584;SDS011;18191;51.288;12.390;2023-09-19T11:00:53;2.63;;;1.02;;
31584;SDS011;18191;51.288;12.390;2023-09-19T11:05:43;1.38;;;0.82;;
31584;SDS011;18191;51.288;12.390;2023-09-19T11:10:50;10.88;;;1.65;;
31584;SDS011;18191;51.288;12.390;2023-09-19T11:20:47;3.70;;;0.90;;
31584;SDS011;18191;51.288;12.390;2023-09-19T11:25:41;4.43;;;1.17;;
31584;SDS011;18191;51.288;12.390;2023-09-19T11:30:38;8.00;;;1.20;;
31584;SDS011;18191;51.288;12.390;2023-09-19T11:35:57;5.30;;;1.13;;
31584;SDS011;18191;51.288;12.390;2023-09-19T11:40:38;2.75;;;1.02;;
31584;SDS011;18191;51.288;12.390;2023-09-19T11:50:36;3.88;;;1.33;;
31584;SDS011;18191;51.288;12.390;2023-09-19T11:55:30;3.17;;;0.93;;
31584;SDS011;18191;51.288;12.390;2023-09-19T12:00:22;8.45;;;1.30;;
31584;SDS011;18191;51.288;12.390;2023-09-19T12:05:12;4.00;;;1.10;;
31584;SDS011;18191;51.288;12.390;2023-09-19T12:10:03;5.38;;;1.35;;
31584;SDS011;18191;51.288;12.390;2023-09-19T12:14:54;3.20;;;1.35;;
31584;SDS011;18191;51.288;12.390;2023-09-19T12:19:52;4.75;;;1.15;;
31584;SDS011;18191;51.288;12.390;2023-09-19T12:24:42;7.32;;;1.98;;
31584;SDS011;18191;51.288;12.390;2023-09-19T12:29:47;7.85;;;2.05;;
31584;SDS011;18191;51.288;12.390;2023-09-19T12:34:40;4.80;;;1.60;;
31584;SDS011;18191;51.288;12.390;2023-09-19T12:39:33;3.17;;;1.10;;
31584;SDS011;18191;51.288;12.390;2023-09-19T12:44:23;6.97;;;1.70;;
31584;SDS011;18191;51.288;12.390;2023-09-19T12:49:15;3.78;;;1.30;;
31584;SDS011;18191;51.288;12.390;2023-09-19T12:54:07;4.65;;;1.58;;
31584;SDS011;18191;51.288;12.390;2023-09-19T12:58:58;5.97;;;1.38;;
31584;SDS011;18191;51.288;12.390;2023-09-19T13:09:09;4.32;;;1.77;;
31584;SDS011;18191;51.288;12.390;2023-09-19T13:19:09;4.57;;;1.40;;
31584;SDS011;18191;51.288;12.390;2023-09-19T13:24:21;3.80;;;1.70;;
31584;SDS011;18191;51.288;12.390;2023-09-19T13:29:12;5.03;;;1.38;;
31584;SDS011;18191;51.288;12.390;2023-09-19T13:34:04;4.50;;;1.80;;
31584;SDS011;18191;51.288;12.390;2023-09-19T13:38:54;9.55;;;1.90;;
31584;SDS011;18191;51.288;12.390;2023-09-19T13:43:45;4.55;;;1.55;;
31584;SDS011;18191;51.288;12.390;2023-09-19T13:48:38;6.38;;;1.95;;
31584;SDS011;18191;51.288;12.390;2023-09-19T13:53:29;4.65;;;1.40;;
31584;SDS011;18191;51.288;12.390;2023-09-19T13:58:19;5.65;;;1.85;;
31584;SDS011;18191;51.288;12.390;2023-09-19T14:03:11;6.20;;;1.90;;
31584;SDS011;18191;51.288;12.390;2023-09-19T14:08:01;6.82;;;1.80;;
31584;SDS011;18191;51.288;12.390;2023-09-19T14:12:53;5.60;;;1.83;;
31584;SDS011;18191;51.288;12.390;2023-09-19T14:17:43;4.43;;;1.90;;
31584;SDS011;18191;51.288;12.390;2023-09-19T14:22:35;3.47;;;1.40;;
31584;SDS011;18191;51.288;12.390;2023-09-19T14:27:26;4.97;;;1.77;;
31584;SDS011;18191;51.288;12.390;2023-09-19T14:32:16;6.38;;;2.15;;
31584;SDS011;18191;51.288;12.390;2023-09-19T14:37:07;4.40;;;1.40;;
31584;SDS011;18191;51.288;12.390;2023-09-19T14:41:57;6.83;;;2.20;;
31584;SDS011;18191;51.288;12.390;2023-09-19T14:46:47;3.92;;;2.10;;
31584;SDS011;18191;51.288;12.390;2023-09-19T14:51:38;4.78;;;2.13;;
31584;SDS011;18191;51.288;12.390;2023-09-19T14:56:29;7.60;;;2.03;;
31584;SDS011;18191;51.288;12.390;2023-09-19T15:01:21;2.60;;;1.55;;
31584;SDS011;18191;51.288;12.390;2023-09-19T15:06:12;3.60;;;1.77;;
31584;SDS011;18191;51.288;12.390;2023-09-19T15:11:04;5.70;;;2.05;;
31584;SDS011;18191;51.288;12.390;2023-09-19T15:15:59;12.35;;;2.13;;
31584;SDS011;18191;51.288;12.390;2023-09-19T15:20:49;20.88;;;2.45;;
31584;SDS011;18191;51.288;12.390;2023-09-19T15:25:41;5.95;;;2.28;;
31584;SDS011;18191;51.288;12.390;2023-09-19T15:30:37;4.80;;;1.80;;
31584;SDS011;18191;51.288;12.390;2023-09-19T15:35:28;12.68;;;2.03;;
31584;SDS011;18191;51.288;12.390;2023-09-19T15:40:18;6.53;;;2.17;;
31584;SDS011;18191;51.288;12.390;2023-09-19T15:45:10;8.45;;;2.35;;
31584;SDS011;18191;51.288;12.390;2023-09-19T15:50:01;5.30;;;2.13;;
31584;SDS011;18191;51.288;12.390;2023-09-19T15:54:51;5.10;;;1.85;;
31584;SDS011;18191;51.288;12.390;2023-09-19T15:59:42;6.63;;;2.28;;
31584;SDS011;18191;51.288;12.390;2023-09-19T16:04:32;3.20;;;1.40;;
31584;SDS011;18191;51.288;12.390;2023-09-19T16:09:22;3.90;;;1.63;;
31584;SDS011;18191;51.288;12.390;2023-09-19T16:14:12;6.80;;;2.30;;
31584;SDS011;18191;51.288;12.390;2023-09-19T16:19:04;16.05;;;1.88;;
31584;SDS011;18191;51.288;12.390;2023-09-19T16:23:56;6.72;;;2.03;;
31584;SDS011;18191;51.288;12.390;2023-09-19T16:28:47;5.00;;;1.67;;
31584;SDS011;18191;51.288;12.390;2023-09-19T16:33:38;6.13;;;1.45;;
31584;SDS011;18191;51.288;12.390;2023-09-19T16:38:32;11.30;;;1.65;;
31584;SDS011;18191;51.288;12.390;2023-09-19T16:43:23;6.35;;;2.30;;
31584;SDS011;18191;51.288;12.390;2023-09-19T16:48:13;3.60;;;1.77;;
31584;SDS011;18191;51.288;12.390;2023-09-19T16:53:03;6.18;;;1.25;;
31584;SDS011;18191;51.288;12.390;2023-09-19T16:57:53;6.37;;;1.90;;
31584;SDS011;18191;51.288;12.390;2023-09-19T17:02:45;7.50;;;2.00;;
31584;SDS011;18191;51.288;12.390;2023-09-19T17:07:35;8.63;;;2.92;;
31584;SDS011;18191;51.288;12.390;2023-09-19T17:12:26;6.97;;;2.45;;
31584;SDS011;18191;51.288;12.390;2023-09-19T17:17:17;4.60;;;1.90;;
31584;SDS011;18191;51.288;12.390;2023-09-19T17:22:07;5.00;;;1.80;;
31584;SDS011;18191;51.288;12.390;2023-09-19T17:26:57;6.25;;;2.00;;
31584;SDS011;18191;51.288;12.390;2023-09-19T17:31:47;13.77;;;2.08;;
31584;SDS011;18191;51.288;12.390;2023-09-19T17:36:38;16.13;;;2.85;;
31584;SDS011;18191;51.288;12.390;2023-09-19T17:41:30;5.80;;;2.00;;
31584;SDS011;18191;51.288;12.390;2023-09-19T17:46:21;3.63;;;1.30;;
31584;SDS011;18191;51.288;12.390;2023-09-19T17:51:15;6.95;;;1.65;;
31584;SDS011;18191;51.288;12.390;2023-09-19T17:56:07;11.25;;;2.40;;
31584;SDS011;18191;51.288;12.390;2023-09-19T18:01:07;7.07;;;2.63;;
31584;SDS011;18191;51.288;12.390;2023-09-19T18:05:59;6.60;;;1.98;;
31584;SDS011;18191;51.288;12.390;2023-09-19T18:10:50;4.30;;;1.88;;
31584;SDS011;18191;51.288;12.390;2023-09-19T18:15:40;5.97;;;1.58;;
31584;SDS011;18191;51.288;12.390;2023-09-19T18:20:34;3.85;;;1.67;;
31584;SDS011;18191;51.288;12.390;2023-09-19T18:25:24;7.65;;;1.63;;
31584;SDS011;18191;51.288;12.390;2023-09-19T18:30:14;5.43;;;1.90;;
31584;SDS011;18191;51.288;12.390;2023-09-19T18:35:05;2.63;;;1.20;;
31584;SDS011;18191;51.288;12.390;2023-09-19T18:39:57;6.45;;;1.88;;
31584;SDS011;18191;51.288;12.390;2023-09-19T18:44:47;4.65;;;1.50;;
31584;SDS011;18191;51.288;12.390;2023-09-19T18:49:39;8.77;;;2.72;;
31584;SDS011;18191;51.288;12.390;2023-09-19T18:54:29;7.60;;;2.10;;
31584;SDS011;18191;51.288;12.390;2023-09-19T18:59:19;10.02;;;1.52;;
31584;SDS011;18191;51.288;12.390;2023-09-19T19:04:12;5.97;;;1.90;;
31584;SDS011;18191;51.288;12.390;2023-09-19T19:09:03;8.02;;;1.73;;
31584;SDS011;18191;51.288;12.390;2023-09-19T19:13:53;7.07;;;1.80;;
31584;SDS011;18191;51.288;12.390;2023-09-19T19:18:44;7.32;;;1.77;;
31584;SDS011;18191;51.288;12.390;2023-09-19T19:23:34;5.95;;;1.33;;
31584;SDS011;18191;51.288;12.390;2023-09-19T19:28:25;6.18;;;1.50;;
31584;SDS011;18191;51.288;12.390;2023-09-19T19:33:15;4.35;;;1.83;;
31584;SDS011;18191;51.288;12.390;2023-09-19T19:38:05;10.00;;;2.53;;
31584;SDS011;18191;51.288;12.390;2023-09-19T19:47:45;6.53;;;1.63;;
31584;SDS011;18191;51.288;12.390;2023-09-19T19:52:37;7.93;;;1.65;;
31584;SDS011;18191;51.288;12.390;2023-09-19T19:57:27;10.23;;;1.57;;
31584;SDS011;18191;51.288;12.390;2023-09-19T20:02:17;3.67;;;1.40;;
31584;SDS011;18191;51.288;12.390;2023-09-19T20:07:08;8.65;;;2.17;;
31584;SDS011;18191;51.288;12.390;2023-09-19T20:12:00;8.20;;;1.50;;
31584;SDS011;18191;51.288;12.390;2023-09-19T20:16:50;9.03;;;1.37;;
31584;SDS011;18191;51.288;12.390;2023-09-19T20:21:42;7.93;;;1.80;;
31584;SDS011;18191;51.288;12.390;2023-09-19T20:26:36;7.37;;;1.63;;
31584;SDS011;18191;51.288;12.390;2023-09-19T20:31:27;3.15;;;1.45;;
31584;SDS011;18191;51.288;12.390;2023-09-19T20:41:08;8.27;;;1.52;;
31584;SDS011;18191;51.288;12.390;2023-09-19T20:46:01;7.30;;;2.13;;
31584;SDS011;18191;51.288;12.390;2023-09-19T20:50:51;7.78;;;1.50;;
31584;SDS011;18191;51.288;12.390;2023-09-19T21:00:32;3.40;;;1.43;;
31584;SDS011;18191;51.288;12.390;2023-09-19T21:05:23;6.28;;;2.10;;
31584;SDS011;18191;51.288;12.390;2023-09-19T21:10:13;6.57;;;1.83;;
31584;SDS011;18191;51.288;12.390;2023-09-19T21:19:56;9.60;;;1.70;;
31584;SDS011;18191;51.288;12.390;2023-09-19T21:24:49;12.63;;;2.85;;
31584;SDS011;18191;51.288;12.390;2023-09-19T21:29:41;8.63;;;1.98;;
31584;SDS011;18191;51.288;12.390;2023-09-19T21:34:31;5.00;;;1.65;;
31584;SDS011;18191;51.288;12.390;2023-09-19T21:39:21;10.27;;;2.20;;
31584;SDS011;18191;51.288;12.390;2023-09-19T21:49:02;10.55;;;2.33;;
31584;SDS011;18191;51.288;12.390;2023-09-19T21:58:42;10.07;;;1.98;;
31584;SDS011;18191;51.288;12.390;2023-09-19T22:08:26;12.75;;;2.22;;
31584;SDS011;18191;51.288;12.390;2023-09-19T22:13:16;3.08;;;1.48;;
31584;SDS011;18191;51.288;12.390;2023-09-19T22:18:11;8.30;;;1.65;;
31584;SDS011;18191;51.288;12.390;2023-09-19T22:27:53;6.15;;;1.73;;
31584;SDS011;18191;51.288;12.390;2023-09-19T22:32:44;4.07;;;1.20;;
31584;SDS011;18191;51.288;12.390;2023-09-19T22:42:27;1.73;;;1.20;;
31584;SDS011;18191;51.288;12.390;2023-09-19T22:47:18;4.95;;;2.08;;
31584;SDS011;18191;51.288;12.390;2023-09-19T22:52:09;4.05;;;1.58;;
31584;SDS011;18191;51.288;12.390;2023-09-19T22:56:59;6.68;;;1.95;;
31584;SDS011;18191;51.288;12.390;2023-09-19T23:01:52;5.32;;;1.83;;
31584;SDS011;18191;51.288;12.390;2023-09-19T23:06:46;6.00;;;1.93;;
31584;SDS011;18191;51.288;12.390;2023-09-19T23:11:53;3.80;;;1.40;;
31584;SDS011;18191;51.288;12.390;2023-09-19T23:16:52;2.53;;;1.20;;
31584;SDS011;18191;51.288;12.390;2023-09-19T23:21:50;3.38;;;1.42;;
31584;SDS011;18191;51.288;12.390;2023-09-19T23:26:43;5.38;;;1.70;;
31584;SDS011;18191;51.288;12.390;2023-09-19T23:31:39;3.58;;;1.50;;
31584;SDS011;18191;51.288;12.390;2023-09-19T23:36:33;5.55;;;1.83;;
31584;SDS011;18191;51.288;12.390;2023-09-19T23:41:24;6.22;;;1.80;;
31584;SDS011;18191;51.288;12.390;2023-09-19T23:46:15;8.25;;;2.00;;
31584;SDS011;18191;51.288;12.390;2023-09-19T23:51:05;11.68;;;2.28;;
31584;SDS011;18191;51.288;12.390;2023-09-19T23:55:56;6.03;;;1.52;;
